Time;durP1;ratioP1;P1;durP2;ratioP2;P2;SDS_P1;SDS_P2;PMS_P1;PMS_P2;Temp;Humidity;BMP_temperature;BMP_pressure;BME280_temperature;BME280_humidity;BME280_pressure;Samples;Min_cycle;Max_cycle;Signal;HPM_P1;HPM_P2
2024/01/25 00:00:16;;;;;;;2.07;1.30;;;;;;;;;;4985909;28;58740;-68
2024/01/25 00:02:41;;;;;;;1.98;1.17;;;;;;;;;;4985896;28;59723;-68
2024/01/25 00:05:07;;;;;;;3.13;1.47;;;;;;;;;;4983866;28;59166;-67
2024/01/25 00:07:32;;;;;;;2.15;1.30;;;;;;;;;;4985289;28;58824;-67
2024/01/25 00:09:57;;;;;;;5.23;2.17;;;;;;;;;;4987184;28;58868;-67
2024/01/25 00:12:23;;;;;;;1.88;1.35;;;;;;;;;;4986589;28;58504;-67
2024/01/25 00:14:48;;;;;;;4.50;1.40;;;;;;;;;;4985533;28;60624;-67
2024/01/25 00:17:13;;;;;;;1.73;1.10;;;;;;;;;;4983750;28;60660;-67
2024/01/25 00:19:38;;;;;;;2.30;1.65;;;;;;;;;;4983895;28;58498;-67
2024/01/25 00:22:03;;;;;;;1.20;0.93;;;;;;;;;;4988022;28;59334;-67
2024/01/25 00:24:28;;;;;;;1.52;1.30;;;;;;;;;;4984345;28;60068;-70
2024/01/25 00:26:54;;;;;;;1.30;1.20;;;;;;;;;;4987012;28;58501;-67
2024/01/25 00:29:19;;;;;;;4.60;1.83;;;;;;;;;;4984736;28;60514;-69
2024/01/25 00:31:44;;;;;;;2.35;1.73;;;;;;;;;;4984063;28;60435;-66
2024/01/25 00:34:09;;;;;;;1.65;0.98;;;;;;;;;;4985001;28;58752;-68
2024/01/25 00:36:34;;;;;;;1.20;1.08;;;;;;;;;;4986842;28;59632;-68
2024/01/25 00:39:00;;;;;;;1.40;1.13;;;;;;;;;;4987058;28;58592;-68
2024/01/25 00:41:25;;;;;;;1.88;1.45;;;;;;;;;;4985887;28;59523;-67
2024/01/25 00:43:51;;;;;;;1.25;1.15;;;;;;;;;;4983090;28;58848;-67
2024/01/25 00:46:16;;;;;;;1.48;1.00;;;;;;;;;;4984874;28;58760;-67
2024/01/25 00:48:42;;;;;;;1.42;1.08;;;;;;;;;;4987573;28;59544;-67
2024/01/25 00:51:09;;;;;;;1.88;1.00;;;;;;;;;;4985492;28;58378;-67
2024/01/25 00:53:35;;;;;;;2.80;1.55;;;;;;;;;;4985489;28;58818;-72
2024/01/25 00:56:00;;;;;;;3.33;1.35;;;;;;;;;;4986212;28;58478;-72
2024/01/25 00:58:25;;;;;;;2.13;1.63;;;;;;;;;;4985902;28;58753;-72
2024/01/25 01:00:50;;;;;;;1.90;1.00;;;;;;;;;;4985141;28;59636;-71
2024/01/25 01:03:18;;;;;;;4.37;1.00;;;;;;;;;;4984606;28;60289;-67
2024/01/25 01:05:43;;;;;;;2.72;1.58;;;;;;;;;;4984375;28;59151;-67
2024/01/25 01:08:08;;;;;;;1.30;0.90;;;;;;;;;;4985859;28;60188;-68
2024/01/25 01:10:33;;;;;;;1.40;1.05;;;;;;;;;;4985061;28;59235;-68
2024/01/25 01:12:59;;;;;;;2.58;1.45;;;;;;;;;;4985303;28;59238;-69
2024/01/25 01:15:24;;;;;;;2.23;0.73;;;;;;;;;;4985346;28;58749;-68
2024/01/25 01:17:49;;;;;;;1.03;0.70;;;;;;;;;;4984016;28;58728;-66
2024/01/25 01:20:14;;;;;;;1.03;0.90;;;;;;;;;;4985113;28;59280;-67
2024/01/25 01:22:39;;;;;;;3.00;1.23;;;;;;;;;;4985214;28;59566;-67
2024/01/25 01:25:05;;;;;;;2.83;1.13;;;;;;;;;;4982351;28;58390;-68
2024/01/25 01:27:30;;;;;;;1.50;1.00;;;;;;;;;;4987388;28;58475;-67
2024/01/25 01:29:55;;;;;;;1.98;0.73;;;;;;;;;;4984012;28;58706;-67
2024/01/25 01:32:20;;;;;;;2.43;1.20;;;;;;;;;;4984353;28;58956;-67
2024/01/25 01:34:45;;;;;;;1.77;0.90;;;;;;;;;;4985154;28;58719;-68
2024/01/25 01:37:10;;;;;;;0.83;0.80;;;;;;;;;;4985681;28;58351;-67
2024/01/25 01:39:35;;;;;;;3.97;1.33;;;;;;;;;;4985683;28;59533;-67
2024/01/25 01:42:01;;;;;;;1.63;1.10;;;;;;;;;;4980876;28;59944;-68
2024/01/25 01:44:26;;;;;;;1.07;0.73;;;;;;;;;;4986561;28;58776;-68
2024/01/25 01:46:51;;;;;;;1.00;0.73;;;;;;;;;;4982334;28;60030;-67
2024/01/25 01:49:16;;;;;;;2.05;0.88;;;;;;;;;;4985068;28;58785;-69
2024/01/25 01:51:44;;;;;;;2.08;1.00;;;;;;;;;;4983601;28;58778;-65
2024/01/25 01:54:10;;;;;;;1.52;0.93;;;;;;;;;;4984594;28;58629;-66
2024/01/25 01:56:35;;;;;;;1.58;1.27;;;;;;;;;;4985883;28;59711;-66
2024/01/25 01:59:04;;;;;;;2.47;0.82;;;;;;;;;;4983716;28;58558;-67
2024/01/25 02:01:30;;;;;;;2.50;0.77;;;;;;;;;;4982343;28;59523;-66
2024/01/25 02:03:55;;;;;;;1.45;0.88;;;;;;;;;;4984115;28;58368;-70
2024/01/25 02:06:21;;;;;;;3.30;1.45;;;;;;;;;;4986242;28;58465;-71
2024/01/25 02:08:47;;;;;;;2.22;1.27;;;;;;;;;;4984475;28;59087;-70
2024/01/25 02:11:12;;;;;;;1.50;1.05;;;;;;;;;;4984642;28;58372;-73
2024/01/25 02:13:37;;;;;;;1.50;0.77;;;;;;;;;;4982369;28;59388;-68
2024/01/25 02:16:03;;;;;;;0.97;0.77;;;;;;;;;;4982253;28;59044;-68
2024/01/25 02:18:28;;;;;;;2.22;0.82;;;;;;;;;;4983218;28;58271;-67
2024/01/25 02:20:53;;;;;;;2.08;1.25;;;;;;;;;;4982586;28;58655;-67
2024/01/25 02:23:19;;;;;;;1.38;1.20;;;;;;;;;;4984312;28;58794;-69
2024/01/25 02:25:44;;;;;;;2.40;1.23;;;;;;;;;;4985059;28;59360;-67
2024/01/25 02:28:09;;;;;;;0.85;0.75;;;;;;;;;;4985251;28;59509;-68
2024/01/25 02:30:34;;;;;;;1.43;0.90;;;;;;;;;;4982485;28;58546;-70
2024/01/25 02:32:59;;;;;;;2.47;1.42;;;;;;;;;;4985520;28;58520;-69
2024/01/25 02:35:24;;;;;;;1.20;1.00;;;;;;;;;;4983111;28;58661;-70
2024/01/25 02:37:50;;;;;;;1.80;0.80;;;;;;;;;;4985030;28;58791;-67
2024/01/25 02:40:15;;;;;;;1.80;1.00;;;;;;;;;;4984092;28;59482;-68
2024/01/25 02:42:41;;;;;;;1.83;1.07;;;;;;;;;;4983703;28;58978;-68
2024/01/25 02:45:06;;;;;;;2.07;1.00;;;;;;;;;;4982435;28;58833;-68
2024/01/25 02:47:31;;;;;;;0.95;0.80;;;;;;;;;;4982724;28;58675;-68
2024/01/25 02:49:56;;;;;;;1.37;0.70;;;;;;;;;;4984919;28;58701;-68
2024/01/25 02:52:21;;;;;;;0.82;0.80;;;;;;;;;;4985492;28;59040;-68
2024/01/25 02:54:46;;;;;;;1.13;0.70;;;;;;;;;;4983949;28;59098;-68
2024/01/25 02:57:12;;;;;;;2.40;0.80;;;;;;;;;;4982905;28;58412;-69
2024/01/25 02:59:37;;;;;;;1.30;0.80;;;;;;;;;;4982770;28;59344;-68
2024/01/25 03:02:02;;;;;;;1.42;1.00;;;;;;;;;;4982040;28;59081;-69
2024/01/25 03:04:27;;;;;;;0.93;0.70;;;;;;;;;;4983894;28;58434;-68
2024/01/25 03:06:52;;;;;;;1.20;1.00;;;;;;;;;;4984536;28;58638;-68
2024/01/25 03:09:17;;;;;;;2.03;1.05;;;;;;;;;;4985682;28;58715;-67
2024/01/25 03:11:43;;;;;;;3.03;1.40;;;;;;;;;;4984252;28;59984;-68
2024/01/25 03:14:08;;;;;;;1.23;0.83;;;;;;;;;;4983962;28;59023;-65
2024/01/25 03:16:33;;;;;;;2.23;1.03;;;;;;;;;;4981267;28;58595;-68
2024/01/25 03:18:58;;;;;;;2.07;1.27;;;;;;;;;;4982753;28;58735;-67
2024/01/25 03:21:23;;;;;;;1.87;0.80;;;;;;;;;;4983415;28;58798;-67
2024/01/25 03:23:49;;;;;;;1.17;0.80;;;;;;;;;;4983958;28;59386;-68
2024/01/25 03:26:14;;;;;;;1.27;1.00;;;;;;;;;;4983824;28;58764;-70
2024/01/25 03:28:40;;;;;;;1.88;0.77;;;;;;;;;;4982638;28;58334;-68
2024/01/25 03:31:05;;;;;;;1.03;0.93;;;;;;;;;;4986052;28;60550;-69
2024/01/25 03:33:32;;;;;;;2.10;1.07;;;;;;;;;;4985904;28;58800;-67
2024/01/25 03:35:57;;;;;;;1.02;0.95;;;;;;;;;;4985272;28;58837;-69
2024/01/25 03:38:22;;;;;;;1.75;1.20;;;;;;;;;;4986128;28;60204;-69
2024/01/25 03:40:48;;;;;;;1.17;0.82;;;;;;;;;;4985503;28;58327;-69
2024/01/25 03:43:13;;;;;;;2.13;1.07;;;;;;;;;;4986918;28;58418;-67
2024/01/25 03:45:38;;;;;;;0.70;0.70;;;;;;;;;;4987307;28;59114;-68
2024/01/25 03:48:04;;;;;;;3.27;1.00;;;;;;;;;;4985603;28;59142;-68
2024/01/25 03:50:29;;;;;;;0.70;0.50;;;;;;;;;;4984205;28;59307;-67
2024/01/25 03:52:54;;;;;;;1.33;1.10;;;;;;;;;;4985041;28;59936;-67
2024/01/25 03:55:19;;;;;;;1.45;1.08;;;;;;;;;;4988289;28;58451;-70
2024/01/25 03:57:45;;;;;;;1.13;0.70;;;;;;;;;;4986903;28;58380;-67
2024/01/25 04:00:11;;;;;;;1.45;1.10;;;;;;;;;;4986156;28;59459;-68
2024/01/25 04:02:36;;;;;;;1.73;1.15;;;;;;;;;;4984737;28;59091;-67
2024/01/25 04:05:01;;;;;;;2.37;0.67;;;;;;;;;;4986403;28;58602;-70
2024/01/25 04:07:26;;;;;;;1.48;0.82;;;;;;;;;;4987265;28;58725;-68
2024/01/25 04:09:52;;;;;;;1.23;1.03;;;;;;;;;;4985759;28;59633;-68
2024/01/25 04:12:17;;;;;;;1.25;0.68;;;;;;;;;;4985392;28;59341;-68
2024/01/25 04:14:42;;;;;;;1.43;1.07;;;;;;;;;;4985705;28;58145;-67
2024/01/25 04:17:07;;;;;;;2.47;1.08;;;;;;;;;;4982241;28;59641;-68
2024/01/25 04:19:32;;;;;;;2.93;0.67;;;;;;;;;;4982475;28;58795;-69
2024/01/25 04:21:57;;;;;;;0.60;0.60;;;;;;;;;;4980202;28;58740;-67
2024/01/25 04:24:22;;;;;;;0.65;0.52;;;;;;;;;;4987731;28;59267;-68
2024/01/25 04:26:48;;;;;;;2.00;0.70;;;;;;;;;;4986199;28;58490;-66
2024/01/25 04:29:13;;;;;;;1.38;0.98;;;;;;;;;;4984946;28;59301;-68
2024/01/25 04:31:45;;;;;;;0.75;0.75;;;;;;;;;;4982970;28;60759;-67
2024/01/25 04:34:10;;;;;;;1.98;1.02;;;;;;;;;;4982647;28;58610;-72
2024/01/25 04:36:36;;;;;;;1.03;0.60;;;;;;;;;;4985149;28;60261;-72
2024/01/25 04:39:01;;;;;;;0.68;0.43;;;;;;;;;;4983818;28;60240;-72
2024/01/25 04:41:26;;;;;;;1.00;0.87;;;;;;;;;;4983955;28;58826;-72
2024/01/25 04:43:51;;;;;;;1.90;1.00;;;;;;;;;;4982264;28;60515;-72
2024/01/25 04:46:17;;;;;;;1.13;0.77;;;;;;;;;;4983601;28;59294;-72
2024/01/25 04:48:42;;;;;;;1.25;0.60;;;;;;;;;;4985909;28;58456;-72
2024/01/25 04:51:07;;;;;;;2.08;0.73;;;;;;;;;;4983277;28;58994;-72
2024/01/25 04:53:32;;;;;;;1.60;0.67;;;;;;;;;;4984080;28;58360;-71
2024/01/25 04:55:59;;;;;;;1.52;0.90;;;;;;;;;;4984577;28;59195;-72
2024/01/25 04:58:25;;;;;;;0.93;0.50;;;;;;;;;;4984210;28;59320;-72
2024/01/25 05:00:53;;;;;;;3.00;0.88;;;;;;;;;;4983136;28;58710;-72
2024/01/25 05:03:19;;;;;;;1.58;0.60;;;;;;;;;;4984494;28;58829;-72
2024/01/25 05:05:44;;;;;;;1.23;0.80;;;;;;;;;;4987637;28;59081;-72
2024/01/25 05:08:09;;;;;;;1.03;0.73;;;;;;;;;;4985964;28;59013;-72
2024/01/25 05:10:34;;;;;;;0.93;0.80;;;;;;;;;;4987520;28;59615;-72
2024/01/25 05:12:59;;;;;;;1.40;0.75;;;;;;;;;;4985173;28;59820;-72
2024/01/25 05:15:24;;;;;;;3.00;1.13;;;;;;;;;;4984591;28;59565;-72
2024/01/25 05:17:50;;;;;;;1.60;1.03;;;;;;;;;;4982480;28;59349;-72
2024/01/25 05:20:17;;;;;;;2.83;1.07;;;;;;;;;;4983384;28;58520;-72
2024/01/25 05:22:42;;;;;;;1.50;0.90;;;;;;;;;;4967919;28;59288;-72
2024/01/25 05:25:08;;;;;;;1.17;0.70;;;;;;;;;;4985610;28;59409;-72
2024/01/25 05:27:33;;;;;;;0.93;0.52;;;;;;;;;;4985493;28;58418;-72
2024/01/25 05:29:58;;;;;;;0.50;0.30;;;;;;;;;;4984575;28;59363;-72
2024/01/25 05:32:23;;;;;;;1.63;0.73;;;;;;;;;;4982560;28;58512;-67
2024/01/25 05:34:48;;;;;;;1.35;0.80;;;;;;;;;;4984097;28;60866;-67
2024/01/25 05:37:14;;;;;;;1.42;1.10;;;;;;;;;;4984804;28;59520;-68
2024/01/25 05:39:39;;;;;;;1.20;0.82;;;;;;;;;;4983072;28;58608;-67
2024/01/25 05:42:04;;;;;;;0.90;0.55;;;;;;;;;;4986705;28;58260;-72
2024/01/25 05:44:29;;;;;;;1.33;0.90;;;;;;;;;;4983890;28;59329;-73
2024/01/25 05:46:54;;;;;;;7.43;1.98;;;;;;;;;;4982814;28;58387;-74
2024/01/25 05:49:19;;;;;;;3.77;1.70;;;;;;;;;;4983549;28;59487;-74
2024/01/25 05:51:44;;;;;;;12.55;5.07;;;;;;;;;;4985331;28;59957;-72
2024/01/25 05:54:10;;;;;;;16.75;4.45;;;;;;;;;;4983086;28;59380;-73
2024/01/25 05:56:35;;;;;;;13.45;3.67;;;;;;;;;;4984614;28;58815;-66
2024/01/25 05:59:00;;;;;;;10.70;4.05;;;;;;;;;;4985376;28;58733;-68
2024/01/25 06:01:25;;;;;;;9.15;3.85;;;;;;;;;;4980678;28;58840;-66
2024/01/25 06:03:50;;;;;;;14.68;4.85;;;;;;;;;;4985104;28;59326;-66
2024/01/25 06:06:15;;;;;;;17.88;4.10;;;;;;;;;;4983025;28;58670;-66
2024/01/25 06:08:40;;;;;;;17.80;5.00;;;;;;;;;;4986914;28;58735;-67
2024/01/25 06:11:05;;;;;;;17.30;5.00;;;;;;;;;;4984030;28;59596;-66
2024/01/25 06:13:31;;;;;;;19.90;4.33;;;;;;;;;;4982864;28;58706;-74
2024/01/25 06:15:56;;;;;;;15.65;4.75;;;;;;;;;;4983570;28;60138;-73
2024/01/25 06:18:21;;;;;;;16.17;5.22;;;;;;;;;;4984381;28;58433;-73
2024/01/25 06:20:46;;;;;;;18.77;4.17;;;;;;;;;;4985181;28;58308;-73
2024/01/25 06:23:11;;;;;;;19.57;5.23;;;;;;;;;;4983805;28;58935;-65
2024/01/25 06:25:37;;;;;;;16.80;4.60;;;;;;;;;;4984707;28;58818;-66
2024/01/25 06:28:03;;;;;;;12.68;5.43;;;;;;;;;;4983869;28;59533;-67
2024/01/25 06:30:28;;;;;;;15.15;4.50;;;;;;;;;;4984832;28;58835;-65
2024/01/25 06:32:54;;;;;;;17.43;5.10;;;;;;;;;;4984324;28;58548;-64
2024/01/25 06:35:19;;;;;;;21.55;7.38;;;;;;;;;;4983679;28;58672;-65
2024/01/25 06:37:44;;;;;;;21.52;5.35;;;;;;;;;;4984106;28;58291;-65
2024/01/25 06:40:10;;;;;;;11.60;5.50;;;;;;;;;;4983938;28;58870;-65
2024/01/25 06:42:35;;;;;;;17.25;7.03;;;;;;;;;;4984230;28;58660;-66
2024/01/25 06:45:00;;;;;;;14.38;4.57;;;;;;;;;;4984356;28;58446;-65
2024/01/25 06:47:25;;;;;;;13.50;4.67;;;;;;;;;;4984146;28;60303;-65
2024/01/25 06:49:51;;;;;;;16.90;5.57;;;;;;;;;;4985859;28;59537;-64
2024/01/25 06:52:17;;;;;;;16.45;4.97;;;;;;;;;;4984604;28;58334;-68
2024/01/25 06:54:42;;;;;;;13.43;4.38;;;;;;;;;;4985575;28;59206;-65
2024/01/25 06:57:07;;;;;;;9.70;4.78;;;;;;;;;;4985449;28;58372;-65
2024/01/25 06:59:32;;;;;;;13.98;6.00;;;;;;;;;;4983184;28;59147;-65
2024/01/25 07:01:57;;;;;;;10.50;3.53;;;;;;;;;;4986198;28;58755;-65
2024/01/25 07:04:23;;;;;;;18.93;4.17;;;;;;;;;;4984206;28;58738;-65
2024/01/25 07:06:48;;;;;;;9.67;4.33;;;;;;;;;;4991967;28;60285;-65
2024/01/25 07:09:13;;;;;;;12.60;4.72;;;;;;;;;;4986342;28;60738;-65
2024/01/25 07:11:38;;;;;;;11.73;5.27;;;;;;;;;;4986894;28;58363;-65
2024/01/25 07:14:03;;;;;;;13.45;5.68;;;;;;;;;;4988059;28;59626;-67
2024/01/25 07:16:30;;;;;;;9.67;3.90;;;;;;;;;;4986775;28;58813;-65
2024/01/25 07:18:55;;;;;;;13.27;4.50;;;;;;;;;;4990121;28;58257;-66
2024/01/25 07:21:20;;;;;;;10.70;4.33;;;;;;;;;;4989116;28;59024;-65
2024/01/25 07:23:46;;;;;;;14.60;5.22;;;;;;;;;;4987247;28;58976;-65
2024/01/25 07:26:16;;;;;;;11.03;4.80;;;;;;;;;;4987630;28;58682;-67
2024/01/25 07:28:41;;;;;;;7.70;4.13;;;;;;;;;;4986201;28;59302;-66
2024/01/25 07:31:06;;;;;;;10.30;4.53;;;;;;;;;;4987751;28;58600;-66
2024/01/25 07:33:32;;;;;;;10.70;4.63;;;;;;;;;;4987567;28;58762;-65
2024/01/25 07:35:58;;;;;;;8.57;3.00;;;;;;;;;;4985806;28;58652;-65
2024/01/25 07:38:23;;;;;;;16.10;5.05;;;;;;;;;;4986200;28;58375;-65
2024/01/25 07:40:48;;;;;;;12.57;4.07;;;;;;;;;;4992667;28;60494;-64
2024/01/25 07:43:13;;;;;;;12.83;5.10;;;;;;;;;;4986707;28;59124;-65
2024/01/25 07:45:40;;;;;;;10.53;4.00;;;;;;;;;;4988829;28;59455;-67
2024/01/25 07:48:05;;;;;;;14.55;5.13;;;;;;;;;;4986828;28;58960;-65
2024/01/25 07:50:30;;;;;;;11.93;4.13;;;;;;;;;;4989069;28;58791;-64
2024/01/25 07:52:55;;;;;;;12.03;3.77;;;;;;;;;;4992116;28;59782;-65
2024/01/25 07:55:20;;;;;;;9.10;4.00;;;;;;;;;;4986873;28;58892;-66
2024/01/25 07:57:46;;;;;;;12.15;4.22;;;;;;;;;;4988337;28;58764;-65
2024/01/25 08:00:11;;;;;;;8.10;3.40;;;;;;;;;;4988619;28;58829;-67
2024/01/25 08:02:38;;;;;;;7.32;3.40;;;;;;;;;;4987062;28;58768;-68
2024/01/25 08:05:03;;;;;;;9.05;3.47;;;;;;;;;;4986870;28;58873;-69
2024/01/25 08:07:28;;;;;;;7.77;3.97;;;;;;;;;;4989620;28;58760;-68
2024/01/25 08:09:57;;;;;;;7.63;3.80;;;;;;;;;;4987402;28;59174;-69
2024/01/25 08:12:23;;;;;;;7.75;3.90;;;;;;;;;;4986758;28;60648;-68
2024/01/25 08:14:48;;;;;;;9.07;3.53;;;;;;;;;;4992594;28;58519;-68
2024/01/25 08:17:13;;;;;;;10.37;5.00;;;;;;;;;;4985967;28;58792;-69
2024/01/25 08:19:39;;;;;;;9.60;4.43;;;;;;;;;;4988024;28;61258;-69
2024/01/25 08:22:04;;;;;;;11.13;4.05;;;;;;;;;;4987472;28;60405;-68
2024/01/25 08:24:29;;;;;;;8.32;3.92;;;;;;;;;;4987945;28;58565;-68
2024/01/25 08:26:54;;;;;;;5.93;3.47;;;;;;;;;;4984006;28;58374;-69
2024/01/25 08:29:20;;;;;;;8.77;3.73;;;;;;;;;;4988218;28;58604;-68
2024/01/25 08:31:46;;;;;;;10.13;3.47;;;;;;;;;;4987078;28;60211;-68
2024/01/25 08:34:11;;;;;;;7.45;3.53;;;;;;;;;;4985946;28;58633;-68
2024/01/25 08:36:36;;;;;;;8.40;3.20;;;;;;;;;;4988737;28;58750;-68
2024/01/25 08:39:01;;;;;;;6.27;3.53;;;;;;;;;;4986917;28;59436;-68
2024/01/25 08:41:27;;;;;;;9.53;4.37;;;;;;;;;;4981999;28;58917;-68
2024/01/25 08:43:52;;;;;;;7.43;3.23;;;;;;;;;;4985328;28;58712;-69
2024/01/25 08:46:17;;;;;;;10.17;3.47;;;;;;;;;;4985413;28;59345;-68
2024/01/25 08:48:42;;;;;;;5.30;3.27;;;;;;;;;;4988974;28;58658;-69
2024/01/25 08:51:08;;;;;;;8.83;4.67;;;;;;;;;;4987238;28;58944;-68
2024/01/25 08:53:33;;;;;;;8.05;3.75;;;;;;;;;;4987978;28;59528;-69
2024/01/25 08:55:59;;;;;;;7.88;3.88;;;;;;;;;;4985349;28;58690;-68
2024/01/25 08:58:24;;;;;;;5.95;2.85;;;;;;;;;;4985884;28;58505;-68
2024/01/25 09:00:49;;;;;;;5.87;3.13;;;;;;;;;;4985569;28;58538;-68
2024/01/25 09:03:15;;;;;;;6.10;2.90;;;;;;;;;;4987388;28;58495;-68
2024/01/25 09:05:44;;;;;;;7.90;2.80;;;;;;;;;;4989049;28;60303;-68
2024/01/25 09:08:09;;;;;;;8.15;3.17;;;;;;;;;;4985473;28;58797;-68
2024/01/25 09:10:35;;;;;;;6.23;3.40;;;;;;;;;;4985600;28;58728;-68
2024/01/25 09:13:00;;;;;;;6.33;3.13;;;;;;;;;;4986639;28;58443;-68
2024/01/25 09:15:25;;;;;;;7.47;2.83;;;;;;;;;;4986462;28;58604;-68
2024/01/25 09:17:50;;;;;;;6.25;3.85;;;;;;;;;;4985253;28;60275;-68
2024/01/25 09:20:15;;;;;;;5.85;3.70;;;;;;;;;;4988446;28;58801;-69
2024/01/25 09:22:40;;;;;;;6.67;3.27;;;;;;;;;;4987899;28;58757;-68
2024/01/25 09:25:06;;;;;;;4.77;3.77;;;;;;;;;;4986361;28;59785;-68
2024/01/25 09:27:31;;;;;;;6.40;3.07;;;;;;;;;;4989874;28;58860;-68
2024/01/25 09:29:56;;;;;;;5.80;2.90;;;;;;;;;;4986436;28;59498;-69
2024/01/25 09:32:21;;;;;;;7.90;3.40;;;;;;;;;;4984232;28;59726;-68
2024/01/25 09:34:46;;;;;;;9.00;3.57;;;;;;;;;;4987216;28;58219;-68
2024/01/25 09:37:12;;;;;;;7.27;3.13;;;;;;;;;;4990058;28;59697;-69
2024/01/25 09:39:37;;;;;;;7.50;4.97;;;;;;;;;;4985295;28;59069;-68
2024/01/25 09:42:03;;;;;;;9.47;3.50;;;;;;;;;;4988177;28;58985;-69
2024/01/25 09:44:28;;;;;;;6.53;3.20;;;;;;;;;;4984504;28;59592;-68
2024/01/25 09:46:53;;;;;;;4.67;2.70;;;;;;;;;;4986004;28;58383;-68
2024/01/25 09:49:18;;;;;;;9.07;4.25;;;;;;;;;;4985615;28;58818;-68
2024/01/25 09:51:44;;;;;;;4.83;2.67;;;;;;;;;;4986725;28;59210;-68
2024/01/25 09:54:09;;;;;;;4.80;2.88;;;;;;;;;;4986488;28;58935;-69
2024/01/25 09:56:35;;;;;;;7.15;3.53;;;;;;;;;;4986198;28;59379;-69
2024/01/25 09:59:01;;;;;;;4.35;2.90;;;;;;;;;;4985674;28;59294;-68
2024/01/25 10:01:27;;;;;;;3.80;2.30;;;;;;;;;;4988252;28;58755;-68
2024/01/25 10:03:52;;;;;;;6.03;2.87;;;;;;;;;;4983783;28;60933;-68
2024/01/25 10:06:18;;;;;;;6.43;3.42;;;;;;;;;;4985813;28;60259;-68
2024/01/25 10:08:44;;;;;;;6.60;2.83;;;;;;;;;;4985696;28;58677;-68
2024/01/25 10:11:11;;;;;;;5.30;2.90;;;;;;;;;;4985700;28;64173;-68
2024/01/25 10:13:50;;;;;;;6.23;3.50;;;;;;;;;;4986452;28;58282;-66
2024/01/25 10:16:16;;;;;;;4.25;2.50;;;;;;;;;;4986150;28;59777;-64
2024/01/25 10:18:45;;;;;;;6.63;3.40;;;;;;;;;;4982321;28;59622;-65
2024/01/25 10:21:10;;;;;;;4.35;2.53;;;;;;;;;;4990098;28;58792;-65
2024/01/25 10:23:35;;;;;;;5.18;2.95;;;;;;;;;;4985847;28;60034;-64
2024/01/25 10:26:02;;;;;;;6.13;2.83;;;;;;;;;;4984220;28;58352;-66
2024/01/25 10:28:28;;;;;;;7.18;2.67;;;;;;;;;;4983158;28;57978;-64
2024/01/25 10:30:55;;;;;;;3.72;2.40;;;;;;;;;;4988673;28;60450;-64
2024/01/25 10:33:20;;;;;;;4.93;2.92;;;;;;;;;;4986749;28;58805;-64
2024/01/25 10:35:49;;;;;;;6.57;3.07;;;;;;;;;;4985180;28;60857;-66
2024/01/25 10:38:15;;;;;;;8.63;3.78;;;;;;;;;;4984243;28;59465;-66
2024/01/25 10:40:41;;;;;;;7.28;2.90;;;;;;;;;;4982061;28;58626;-67
2024/01/25 10:43:06;;;;;;;4.20;2.73;;;;;;;;;;4985715;28;58744;-65
2024/01/25 10:45:31;;;;;;;3.63;2.05;;;;;;;;;;4984168;28;58758;-66
2024/01/25 10:47:57;;;;;;;5.18;3.08;;;;;;;;;;4986561;28;58759;-65
2024/01/25 10:50:24;;;;;;;5.18;2.63;;;;;;;;;;4986138;28;60358;-67
2024/01/25 10:52:50;;;;;;;5.03;2.22;;;;;;;;;;4986573;28;59830;-65
2024/01/25 10:55:16;;;;;;;6.18;2.78;;;;;;;;;;4984743;28;60974;-65
2024/01/25 10:57:45;;;;;;;8.15;3.75;;;;;;;;;;4984717;28;59087;-66
2024/01/25 11:00:14;;;;;;;4.80;3.17;;;;;;;;;;4984370;28;58675;-65
2024/01/25 11:02:40;;;;;;;7.82;3.72;;;;;;;;;;4983187;28;58490;-64
2024/01/25 11:05:09;;;;;;;8.02;4.63;;;;;;;;;;4984068;28;59730;-66
2024/01/25 11:07:45;;;;;;;5.30;2.72;;;;;;;;;;4983762;28;58585;-68
2024/01/25 11:10:14;;;;;;;4.65;2.95;;;;;;;;;;4982285;28;58708;-65
2024/01/25 11:12:55;;;;;;;7.43;2.75;;;;;;;;;;4982975;28;59330;-66
2024/01/25 11:15:36;;;;;;;5.55;3.00;;;;;;;;;;4987379;28;58640;-64
2024/01/25 11:18:03;;;;;;;5.28;2.47;;;;;;;;;;4985282;28;59880;-65
2024/01/25 11:20:29;;;;;;;4.25;2.40;;;;;;;;;;4984168;28;58515;-65
2024/01/25 11:22:59;;;;;;;6.80;3.00;;;;;;;;;;4985338;28;59425;-66
2024/01/25 11:25:26;;;;;;;6.35;2.60;;;;;;;;;;4984151;28;59694;-65
2024/01/25 11:27:51;;;;;;;6.83;3.37;;;;;;;;;;4984391;28;58620;-66
2024/01/25 11:30:18;;;;;;;4.10;2.10;;;;;;;;;;4985118;28;61058;-64
2024/01/25 11:32:43;;;;;;;10.70;3.45;;;;;;;;;;4983437;28;60150;-65
2024/01/25 11:35:11;;;;;;;4.80;2.77;;;;;;;;;;4986196;28;58720;-66
2024/01/25 11:37:36;;;;;;;3.80;2.75;;;;;;;;;;4984818;28;58974;-65
2024/01/25 11:40:01;;;;;;;4.97;2.67;;;;;;;;;;4984026;28;58907;-65
2024/01/25 11:42:30;;;;;;;6.47;2.97;;;;;;;;;;4990091;28;58992;-65
2024/01/25 11:44:55;;;;;;;4.60;2.55;;;;;;;;;;4982058;28;60175;-65
2024/01/25 11:47:20;;;;;;;3.65;2.40;;;;;;;;;;4984045;28;58714;-65
2024/01/25 11:49:45;;;;;;;6.10;2.37;;;;;;;;;;4984790;28;59124;-66
2024/01/25 11:52:11;;;;;;;5.25;2.63;;;;;;;;;;4987056;28;58644;-65
2024/01/25 11:54:36;;;;;;;6.27;3.20;;;;;;;;;;4989405;28;58885;-65
2024/01/25 11:57:01;;;;;;;4.93;2.38;;;;;;;;;;4988620;28;58980;-64
2024/01/25 11:59:26;;;;;;;3.90;2.30;;;;;;;;;;4986308;28;58708;-65
2024/01/25 12:01:51;;;;;;;3.83;2.23;;;;;;;;;;4987809;28;58996;-67
2024/01/25 12:04:17;;;;;;;4.77;2.80;;;;;;;;;;4987651;28;58775;-65
2024/01/25 12:06:42;;;;;;;2.78;2.15;;;;;;;;;;4988734;28;58887;-67
2024/01/25 12:09:08;;;;;;;3.93;1.80;;;;;;;;;;4990546;28;60067;-64
2024/01/25 12:11:34;;;;;;;4.05;2.45;;;;;;;;;;4986154;28;58858;-66
2024/01/25 12:13:59;;;;;;;4.38;3.45;;;;;;;;;;4990626;28;58410;-65
2024/01/25 12:16:24;;;;;;;3.72;2.67;;;;;;;;;;4988441;28;58791;-67
2024/01/25 12:18:49;;;;;;;5.83;2.93;;;;;;;;;;4986797;28;58473;-67
2024/01/25 12:21:14;;;;;;;3.20;1.77;;;;;;;;;;4987869;28;58684;-64
2024/01/25 12:23:40;;;;;;;4.60;2.47;;;;;;;;;;4989461;28;58500;-64
2024/01/25 12:26:09;;;;;;;3.80;2.10;;;;;;;;;;4986335;28;58395;-67
2024/01/25 12:28:35;;;;;;;4.10;2.85;;;;;;;;;;4986778;28;59474;-66
2024/01/25 12:31:00;;;;;;;3.60;2.33;;;;;;;;;;4986969;28;59880;-64
2024/01/25 12:33:26;;;;;;;4.32;2.17;;;;;;;;;;4988194;28;58849;-64
2024/01/25 12:35:51;;;;;;;6.20;2.75;;;;;;;;;;4987652;28;59636;-64
2024/01/25 12:38:16;;;;;;;6.60;2.90;;;;;;;;;;4983813;28;58617;-65
2024/01/25 12:40:43;;;;;;;5.07;2.97;;;;;;;;;;4988085;28;58783;-65
2024/01/25 12:43:08;;;;;;;4.60;2.35;;;;;;;;;;4986721;28;60580;-64
2024/01/25 12:45:33;;;;;;;4.80;2.58;;;;;;;;;;4987875;28;58363;-64
2024/01/25 12:47:58;;;;;;;5.97;2.65;;;;;;;;;;4988433;28;60180;-64
2024/01/25 12:50:23;;;;;;;5.90;3.03;;;;;;;;;;4985269;28;58635;-64
2024/01/25 12:52:49;;;;;;;4.97;2.83;;;;;;;;;;4986392;28;58434;-64
2024/01/25 12:55:14;;;;;;;4.15;2.30;;;;;;;;;;4990310;28;59538;-64
2024/01/25 12:57:40;;;;;;;3.83;2.17;;;;;;;;;;4989185;28;59248;-64
2024/01/25 13:00:05;;;;;;;3.73;2.27;;;;;;;;;;4988410;28;58167;-65
2024/01/25 13:02:30;;;;;;;4.50;3.03;;;;;;;;;;4985577;28;59987;-64
2024/01/25 13:04:55;;;;;;;3.42;2.30;;;;;;;;;;4985630;28;58520;-64
2024/01/25 13:07:21;;;;;;;5.47;2.80;;;;;;;;;;4985449;28;59965;-64
2024/01/25 13:09:46;;;;;;;3.28;2.08;;;;;;;;;;4986948;28;59147;-64
2024/01/25 13:12:11;;;;;;;4.97;2.53;;;;;;;;;;4990363;28;58935;-64
2024/01/25 13:14:36;;;;;;;4.70;2.33;;;;;;;;;;4987762;28;60143;-64
2024/01/25 13:17:01;;;;;;;4.63;2.90;;;;;;;;;;4988997;28;59433;-65
2024/01/25 13:19:26;;;;;;;4.55;2.50;;;;;;;;;;4987769;28;58331;-66
2024/01/25 13:21:52;;;;;;;4.13;2.43;;;;;;;;;;4988643;28;60412;-64
2024/01/25 13:24:17;;;;;;;3.83;2.47;;;;;;;;;;4986838;28;58742;-65
2024/01/25 13:26:43;;;;;;;4.80;2.58;;;;;;;;;;4983264;28;59573;-74
2024/01/25 13:29:12;;;;;;;4.80;2.88;;;;;;;;;;4983043;28;59631;-74
2024/01/25 13:31:37;;;;;;;6.82;3.17;;;;;;;;;;4984899;28;59440;-73
2024/01/25 13:34:02;;;;;;;6.15;2.60;;;;;;;;;;4985916;28;59095;-73
2024/01/25 13:36:28;;;;;;;4.77;2.30;;;;;;;;;;4984173;28;59266;-72
2024/01/25 13:38:53;;;;;;;2.72;2.15;;;;;;;;;;4985440;28;58565;-72
2024/01/25 13:41:18;;;;;;;5.53;2.87;;;;;;;;;;4983440;28;60655;-75
2024/01/25 13:43:43;;;;;;;6.47;3.27;;;;;;;;;;4983080;28;58919;-77
2024/01/25 13:46:08;;;;;;;6.80;3.00;;;;;;;;;;4983258;28;59650;-75
2024/01/25 13:48:33;;;;;;;6.80;2.57;;;;;;;;;;4985683;28;59514;-77
2024/01/25 13:50:58;;;;;;;11.20;3.77;;;;;;;;;;4985111;28;58628;-76
2024/01/25 13:53:24;;;;;;;6.57;3.17;;;;;;;;;;4985123;28;59513;-73
2024/01/25 13:55:49;;;;;;;7.72;2.65;;;;;;;;;;4983228;28;58557;-71
2024/01/25 13:58:14;;;;;;;9.63;3.45;;;;;;;;;;4985071;28;58876;-73
2024/01/25 14:00:39;;;;;;;7.33;3.53;;;;;;;;;;4985092;28;59444;-72
2024/01/25 14:03:05;;;;;;;9.35;3.20;;;;;;;;;;4984883;28;58176;-72
2024/01/25 14:05:30;;;;;;;13.00;3.07;;;;;;;;;;4985456;28;58531;-74
2024/01/25 14:07:55;;;;;;;7.10;2.83;;;;;;;;;;4985736;28;58930;-73
2024/01/25 14:10:20;;;;;;;8.50;3.13;;;;;;;;;;4982219;28;58559;-77
2024/01/25 14:12:45;;;;;;;8.40;4.07;;;;;;;;;;4986565;28;58813;-77
2024/01/25 14:15:11;;;;;;;7.95;3.88;;;;;;;;;;4981880;28;59128;-73
2024/01/25 14:17:37;;;;;;;10.40;3.13;;;;;;;;;;4983682;28;58541;-69
2024/01/25 14:20:04;;;;;;;7.38;3.40;;;;;;;;;;4981743;28;61687;-71
2024/01/25 14:22:30;;;;;;;16.52;4.78;;;;;;;;;;4980554;28;58994;-71
2024/01/25 14:24:55;;;;;;;4.28;2.85;;;;;;;;;;4981351;28;59039;-70
2024/01/25 14:27:20;;;;;;;4.75;2.63;;;;;;;;;;4981114;28;59999;-71
2024/01/25 14:29:45;;;;;;;7.03;3.40;;;;;;;;;;4981253;28;58360;-70